Onigum, Minnesota
Current Conditions -  °F | °C
As of 1:15 PM on Saturday 20 Dec 2014 (Local Time) from KY49 Reporting Station
Haze Haze  
Wind Chill: 22°   Ceiling: 600
Heat Index: 28°   Visibility: 4mi
Dew Point: 27°   Wind: 6mph
Humidity: 95%   Direction: 210°SSW
Pressure: 30"   Gusts: NA
Location:  47.0507°N, 94.6083°W
Report Text: KY49 201915Z AUTO 21005KT 4SM BR OVC006 M02/M03 A3000 RMK AO2 T10201027
Loading
Personal Weather Stations






























Interactive Weather Map New forecast layout! Learn more

10-Day Weather Forecast

Advertisements
Track Severe Weather on mobile